Time;durP1;ratioP1;P1;durP2;ratioP2;P2;SDS_P1;SDS_P2;PMS_P1;PMS_P2;Temp;Humidity;BMP_temperature;BMP_pressure;BME280_temperature;BME280_humidity;BME280_pressure;Samples;Min_cycle;Max_cycle;Signal;HPM_P1;HPM_P2
2022/12/27 00:00:43;;;;;;;;;;;;;;;26.57;25.07;98010.47;4971027;28;20445;-92
2022/12/27 00:03:09;;;;;;;;;;;;;;;26.38;25.62;98017.91;4994764;28;19925;-92
2022/12/27 00:05:35;;;;;;;;;;;;;;;26.57;25.72;98019.72;4994436;28;19934;-92
2022/12/27 00:08:01;;;;;;;;;;;;;;;27.04;25.29;98022.56;4994098;28;20338;-92
2022/12/27 00:10:27;;;;;;;;;;;;;;;26.70;25.29;98030.94;4993967;28;20282;-92
2022/12/27 00:12:53;;;;;;;;;;;;;;;26.62;25.58;98029.63;4993634;28;20328;-92
2022/12/27 00:15:19;;;;;;;;;;;;;;;26.78;25.10;98023.06;4993155;28;19914;-93
2022/12/27 00:17:45;;;;;;;;;;;;;;;26.37;25.76;98019.16;4970852;28;19918;-94
2022/12/27 00:20:11;;;;;;;;;;;;;;;26.77;25.23;98018.69;4975241;28;19926;-95
2022/12/27 00:22:37;;;;;;;;;;;;;;;26.78;25.24;98015.41;4975205;28;19914;-93
2022/12/27 00:25:04;;;;;;;;;;;;;;;27.17;25.34;98016.88;4974132;28;19918;-92
2022/12/27 00:27:30;;;;;;;;;;;;;;;26.82;25.09;98015.28;4983784;28;19914;-92
2022/12/27 00:29:56;;;;;;;;;;;;;;;25.89;26.37;98011.00;4975096;28;20302;-93
2022/12/27 00:32:22;;;;;;;;;;;;;;;26.19;26.33;98015.31;4957432;28;20333;-93
2022/12/27 00:34:48;;;;;;;;;;;;;;;25.84;26.83;98003.09;4981827;28;19973;-93
2022/12/27 00:37:14;;;;;;;;;;;;;;;25.88;26.29;97998.94;4975865;28;20405;-93
2022/12/27 00:39:40;;;;;;;;;;;;;;;25.46;26.63;98000.25;4959272;28;19918;-92
2022/12/27 00:42:06;;;;;;;;;;;;;;;25.73;27.15;97994.22;4977972;28;20429;-93
2022/12/27 00:44:32;;;;;;;;;;;;;;;26.32;26.44;97994.41;4994374;28;19968;-93
2022/12/27 00:46:58;;;;;;;;;;;;;;;26.15;26.27;97992.94;4994240;28;19914;-93
2022/12/27 00:49:24;;;;;;;;;;;;;;;25.93;26.89;97995.59;4994277;28;19924;-94
2022/12/27 00:51:50;;;;;;;;;;;;;;;26.82;25.83;97993.53;4981211;28;19925;-95
2022/12/27 00:54:17;;;;;;;;;;;;;;;25.94;26.83;97990.75;4978003;28;19922;-93
2022/12/27 00:56:43;;;;;;;;;;;;;;;26.76;25.51;97981.28;4978629;28;19988;-93
2022/12/27 00:59:09;;;;;;;;;;;;;;;27.29;25.05;97987.84;4978337;28;20363;-93
2022/12/27 01:01:36;;;;;;;;;;;;;;;27.23;25.08;97979.22;4992553;28;19926;-92
2022/12/27 01:04:02;;;;;;;;;;;;;;;27.55;24.70;97977.25;4998001;28;20063;-92
2022/12/27 01:06:31;;;;;;;;;;;;;;;27.71;24.05;97966.53;4996901;28;19928;-92
2022/12/27 01:08:57;;;;;;;;;;;;;;;27.48;24.71;97972.66;4996567;28;20016;-92
2022/12/27 01:11:25;;;;;;;;;;;;;;;27.16;24.75;97987.13;4997660;28;20364;-93
2022/12/27 01:13:53;;;;;;;;;;;;;;;27.01;25.53;97995.28;4997779;28;19950;-92
2022/12/27 01:16:20;;;;;;;;;;;;;;;27.20;24.59;97985.75;4997173;28;20281;-93
2022/12/27 01:18:47;;;;;;;;;;;;;;;26.57;25.53;97993.56;4997617;28;20302;-92
2022/12/27 01:21:14;;;;;;;;;;;;;;;26.55;25.93;97988.41;4997285;28;19929;-93
2022/12/27 01:23:40;;;;;;;;;;;;;;;26.43;26.48;97971.53;4996082;28;20281;-92
2022/12/27 01:26:08;;;;;;;;;;;;;;;26.22;26.91;97964.56;4987108;28;20012;-92
2022/12/27 01:28:36;;;;;;;;;;;;;;;26.25;26.46;97963.66;4977906;28;20012;-94
2022/12/27 01:31:05;;;;;;;;;;;;;;;26.45;26.00;97957.78;4976067;28;20355;-93
2022/12/27 01:33:32;;;;;;;;;;;;;;;26.13;26.84;97956.03;4978068;28;19918;-93
2022/12/27 01:36:05;;;;;;;;;;;;;;;26.61;25.73;97958.41;4977917;28;20421;-93
2022/12/27 01:38:31;;;;;;;;;;;;;;;26.42;26.11;97953.84;4960206;28;20014;-93
2022/12/27 01:40:57;;;;;;;;;;;;;;;26.83;25.92;97955.69;4976630;28;20025;-93
2022/12/27 01:43:36;;;;;;;;;;;;;;;26.19;26.62;97954.19;4995771;28;20414;-94
2022/12/27 01:46:02;;;;;;;;;;;;;;;26.62;25.97;97960.00;4996668;28;20044;-93
2022/12/27 01:48:28;;;;;;;;;;;;;;;26.49;25.80;97953.59;4997011;28;19918;-94
2022/12/27 01:50:59;;;;;;;;;;;;;;;26.49;25.85;97952.81;4996901;28;19925;-93
2022/12/27 01:53:37;;;;;;;;;;;;;;;27.01;25.17;97955.03;4997006;28;19969;-93
2022/12/27 01:56:05;;;;;;;;;;;;;;;26.93;25.46;97948.91;4996706;28;20008;-92
2022/12/27 01:58:35;;;;;;;;;;;;;;;26.97;25.05;97957.22;4995732;28;20308;-93
2022/12/27 02:01:03;;;;;;;;;;;;;;;26.69;25.50;97958.97;4995414;28;20298;-92
2022/12/27 02:03:29;;;;;;;;;;;;;;;26.57;25.90;97951.34;4995378;28;19925;-92
2022/12/27 02:05:56;;;;;;;;;;;;;;;26.36;26.10;97946.41;4996162;28;19918;-92
2022/12/27 02:08:25;;;;;;;;;;;;;;;26.42;26.03;97958.69;4996028;28;20088;-92
2022/12/27 02:11:11;;;;;;;;;;;;;;;26.64;25.57;97960.34;4996116;28;19924;-94
2022/12/27 02:13:41;;;;;;;;;;;;;;;25.90;26.88;97957.13;4996261;28;19918;-94
2022/12/27 02:16:18;;;;;;;;;;;;;;;26.05;26.32;97963.84;4960652;28;19969;-94
2022/12/27 02:18:45;;;;;;;;;;;;;;;24.65;28.39;97963.06;4976650;28;19929;-93
2022/12/27 02:21:43;;;;;;;;;;;;;;;25.23;27.85;97956.28;4959377;28;19925;-93
2022/12/27 02:24:29;;;;;;;;;;;;;;;25.27;27.42;97956.97;4975770;28;20384;-93
2022/12/27 02:27:05;;;;;;;;;;;;;;;25.57;26.92;97963.38;4981716;28;19917;-93
2022/12/27 02:29:41;;;;;;;;;;;;;;;25.59;27.51;97963.69;4995441;28;20008;-92
2022/12/27 02:32:28;;;;;;;;;;;;;;;25.27;27.17;97965.41;4994962;28;20421;-93
2022/12/27 02:35:15;;;;;;;;;;;;;;;25.84;26.90;97969.34;4968546;28;19918;-91
2022/12/27 02:37:46;;;;;;;;;;;;;;;25.93;26.49;97975.91;4976019;28;19925;-93
2022/12/27 02:54:53;;;;;;;;;;;;;;;26.50;26.07;97980.53;4995298;28;19929;-93
2022/12/27 02:57:28;;;;;;;;;;;;;;;26.01;27.21;97991.34;4995214;28;20259;-92
2022/12/27 03:03:19;;;;;;;;;;;;;;;25.26;27.43;97988.31;4995066;28;19945;-92
2022/12/27 03:08:51;;;;;;;;;;;;;;;24.80;28.96;98002.84;4990555;28;19928;-92
2022/12/27 03:17:24;;;;;;;;;;;;;;;21.57;33.65;97997.41;4993475;28;19964;-88
2022/12/27 03:25:40;;;;;;;;;;;;;;;21.58;34.36;98010.19;4975539;28;20147;-94
2022/12/27 03:34:48;;;;;;;;;;;;;;;19.02;38.62;98020.84;4975476;28;19964;-93
2022/12/27 03:40:09;;;;;;;;;;;;;;;19.39;38.52;98058.56;4975839;28;20437;-93
2022/12/27 03:48:25;;;;;;;;;;;;;;;20.28;36.90;98088.38;4994391;28;20445;-92
2022/12/27 03:50:53;;;;;;;;;;;;;;;19.15;39.16;98088.00;4994015;28;19944;-92
2022/12/27 03:53:27;;;;;;;;;;;;;;;18.55;40.27;98088.84;4976943;28;19917;-93
2022/12/27 03:55:53;;;;;;;;;;;;;;;19.32;38.80;98095.53;4994214;28;19987;-93
2022/12/27 03:58:25;;;;;;;;;;;;;;;19.16;39.11;98098.72;4990721;28;19922;-92
2022/12/27 04:03:45;;;;;;;;;;;;;;;19.58;38.08;98095.06;4994871;28;19925;-92
2022/12/27 04:06:11;;;;;;;;;;;;;;;19.55;37.51;98109.81;4985452;28;19922;-92
2022/12/27 04:37:04;;;;;;;;;;;;;;;21.79;33.81;98147.66;4959184;29;19930;-95
2022/12/27 04:39:30;;;;;;;;;;;;;;;21.78;33.84;98145.25;4958799;28;19945;-95
2022/12/27 04:55:29;;;;;;;;;;;;;;;23.52;30.57;98158.31;4959230;29;19925;-96
2022/12/27 04:57:56;;;;;;;;;;;;;;;24.06;29.43;98162.50;4958480;28;20077;-95
2022/12/27 05:03:10;;;;;;;;;;;;;;;24.20;29.48;98167.03;4959101;29;19926;-95
2022/12/27 05:05:37;;;;;;;;;;;;;;;21.88;32.69;98186.31;4963454;28;19926;-94
2022/12/27 05:16:19;;;;;;;;;;;;;;;18.41;39.94;98208.31;4979503;28;19921;-96
2022/12/27 05:18:51;;;;;;;;;;;;;;;18.31;40.31;98214.66;4984396;28;19925;-95
2022/12/27 05:21:17;;;;;;;;;;;;;;;18.79;39.22;98223.53;4983559;28;19985;-96
2022/12/27 05:26:30;;;;;;;;;;;;;;;17.92;40.78;98245.03;4965395;29;20001;-96
2022/12/27 05:28:57;;;;;;;;;;;;;;;19.98;36.63;98255.31;4977965;28;20432;-91
2022/12/27 05:31:25;;;;;;;;;;;;;;;21.19;34.14;98256.38;4996508;28;20091;-90
2022/12/27 05:33:52;;;;;;;;;;;;;;;21.42;33.53;98261.38;4967772;28;19918;-89
2022/12/27 05:36:19;;;;;;;;;;;;;;;19.45;37.00;98274.09;4957822;29;20434;-87
2022/12/27 05:38:45;;;;;;;;;;;;;;;19.09;37.54;98259.38;4973361;28;19918;-88
2022/12/27 05:41:11;;;;;;;;;;;;;;;18.52;40.94;98269.56;4964394;28;19997;-87
2022/12/27 05:43:37;;;;;;;;;;;;;;;18.23;41.34;98270.59;4962853;28;20390;-88
2022/12/27 05:46:05;;;;;;;;;;;;;;;18.52;42.66;98292.59;4977409;28;20349;-89
2022/12/27 05:48:31;;;;;;;;;;;;;;;19.02;42.47;98306.66;4977301;28;19976;-89
2022/12/27 05:50:57;;;;;;;;;;;;;;;18.22;41.98;98305.94;4977121;28;20438;-91
2022/12/27 05:53:23;;;;;;;;;;;;;;;18.95;39.79;98312.97;4977423;28;20396;-92
2022/12/27 05:55:56;;;;;;;;;;;;;;;19.19;40.91;98312.25;4976836;28;20009;-95
2022/12/27 05:58:25;;;;;;;;;;;;;;;17.65;42.75;98327.00;4968455;28;19989;-94
2022/12/27 06:00:51;;;;;;;;;;;;;;;18.04;41.53;98332.81;4977479;28;19961;-96
2022/12/27 06:03:17;;;;;;;;;;;;;;;18.94;39.60;98338.44;4977213;28;19965;-93
2022/12/27 06:05:43;;;;;;;;;;;;;;;17.68;42.53;98356.78;4976866;28;20406;-94
2022/12/27 06:08:09;;;;;;;;;;;;;;;18.16;42.19;98357.50;4983246;28;19922;-93
2022/12/27 06:10:36;;;;;;;;;;;;;;;18.83;42.27;98357.88;4978214;28;19941;-93
2022/12/27 06:13:02;;;;;;;;;;;;;;;18.18;41.02;98374.56;4995858;28;19918;-94
2022/12/27 06:15:29;;;;;;;;;;;;;;;18.28;41.04;98382.19;4995853;28;19918;-91
2022/12/27 06:17:55;;;;;;;;;;;;;;;17.11;42.39;98377.59;4995917;28;20385;-93
2022/12/27 06:20:21;;;;;;;;;;;;;;;17.47;43.63;98386.28;4996125;28;20389;-94
2022/12/27 06:22:47;;;;;;;;;;;;;;;17.55;43.55;98388.00;4996508;28;19918;-94
2022/12/27 06:25:13;;;;;;;;;;;;;;;17.24;41.87;98397.56;4997061;28;19922;-95
2022/12/27 06:27:40;;;;;;;;;;;;;;;18.02;41.67;98396.31;4996810;28;20428;-93
2022/12/27 06:30:06;;;;;;;;;;;;;;;17.71;42.05;98402.41;4994844;28;20286;-93
2022/12/27 06:32:35;;;;;;;;;;;;;;;17.61;41.78;98409.47;4995669;28;19929;-95
2022/12/27 06:35:01;;;;;;;;;;;;;;;17.03;42.41;98419.53;4995747;28;20337;-95
2022/12/27 06:37:33;;;;;;;;;;;;;;;16.50;44.46;98433.47;4978536;28;19925;-92
2022/12/27 06:39:59;;;;;;;;;;;;;;;17.50;42.07;98446.59;4995924;28;19929;-91
2022/12/27 06:42:25;;;;;;;;;;;;;;;16.83;43.00;98473.53;4995980;28;19914;-89
2022/12/27 06:45:05;;;;;;;;;;;;;;;15.97;44.23;98458.75;4995249;28;19941;-90
2022/12/27 06:47:31;;;;;;;;;;;;;;;16.39;45.10;98476.03;4963472;28;19921;-91
2022/12/27 06:49:57;;;;;;;;;;;;;;;17.65;42.18;98488.03;4977268;28;19917;-88
2022/12/27 06:52:25;;;;;;;;;;;;;;;14.98;44.84;98512.19;4994266;28;20305;-92
2022/12/27 06:54:51;;;;;;;;;;;;;;;12.88;50.10;98540.22;4994455;28;20377;-91
2022/12/27 06:57:19;;;;;;;;;;;;;;;12.46;52.76;98560.97;4995532;28;20337;-91
2022/12/27 06:59:45;;;;;;;;;;;;;;;12.15;53.48;98541.44;4982095;28;19926;-91
2022/12/27 07:02:11;;;;;;;;;;;;;;;12.82;50.46;98582.16;4995821;28;20017;-89
2022/12/27 07:04:38;;;;;;;;;;;;;;;12.53;50.15;98583.22;4990310;28;20398;-89
2022/12/27 07:07:04;;;;;;;;;;;;;;;12.83;49.01;98594.78;4977306;28;19930;-90
2022/12/27 07:09:30;;;;;;;;;;;;;;;12.06;50.42;98593.84;4967997;28;20417;-90
2022/12/27 07:11:56;;;;;;;;;;;;;;;12.45;49.58;98595.16;4937366;29;19943;-90
2022/12/27 07:14:22;;;;;;;;;;;;;;;13.17;46.99;98621.84;4937313;29;19929;-90
2022/12/27 07:16:48;;;;;;;;;;;;;;;12.88;45.12;98638.63;4937243;29;20426;-89
2022/12/27 07:19:14;;;;;;;;;;;;;;;15.00;41.44;98626.78;4937208;29;19919;-90
2022/12/27 07:21:40;;;;;;;;;;;;;;;15.14;40.79;98634.59;4941768;29;20409;-90
2022/12/27 07:24:06;;;;;;;;;;;;;;;16.11;39.14;98630.69;4937768;29;19942;-90
2022/12/27 07:26:32;;;;;;;;;;;;;;;16.06;39.35;98633.75;4951944;29;19927;-89
2022/12/27 07:28:59;;;;;;;;;;;;;;;15.93;39.32;98649.75;4946615;28;19991;-90
2022/12/27 07:31:28;;;;;;;;;;;;;;;16.31;38.30;98649.69;4955970;29;19923;-89
2022/12/27 07:33:55;;;;;;;;;;;;;;;16.80;36.95;98640.66;4956032;28;19922;-88
2022/12/27 07:36:26;;;;;;;;;;;;;;;16.53;38.02;98643.41;4956476;29;19915;-89
2022/12/27 07:38:52;;;;;;;;;;;;;;;17.43;36.39;98638.06;4949430;29;19954;-89
2022/12/27 07:41:18;;;;;;;;;;;;;;;17.28;36.12;98631.50;4936943;29;19915;-89
2022/12/27 07:43:44;;;;;;;;;;;;;;;17.93;35.31;98649.44;4936865;29;19923;-90
2022/12/27 07:46:12;;;;;;;;;;;;;;;18.91;33.15;98648.03;4946082;29;19986;-89
2022/12/27 07:48:38;;;;;;;;;;;;;;;20.03;31.79;98650.69;4955754;29;20021;-89
2022/12/27 07:51:04;;;;;;;;;;;;;;;20.49;30.72;98648.06;4955904;29;19919;-89
2022/12/27 07:53:30;;;;;;;;;;;;;;;21.00;29.92;98648.50;4955868;29;20403;-89
2022/12/27 07:55:56;;;;;;;;;;;;;;;20.35;30.06;98667.56;4953491;29;19930;-90
2022/12/27 07:58:23;;;;;;;;;;;;;;;21.18;30.31;98654.09;4937040;28;20052;-89
2022/12/27 08:00:50;;;;;;;;;;;;;;;20.86;29.61;98681.19;4935916;29;19926;-89
2022/12/27 08:03:16;;;;;;;;;;;;;;;21.87;29.06;98680.28;4936760;29;20311;-89
2022/12/27 08:05:46;;;;;;;;;;;;;;;22.39;28.21;98698.06;4937532;29;19919;-89
2022/12/27 08:08:14;;;;;;;;;;;;;;;22.51;28.31;98696.78;4969691;28;19922;-88
2022/12/27 08:10:40;;;;;;;;;;;;;;;22.26;27.81;98708.13;4994573;28;20356;-88
2022/12/27 08:13:06;;;;;;;;;;;;;;;22.52;27.83;98713.16;4984852;28;19957;-88
2022/12/27 08:15:32;;;;;;;;;;;;;;;22.10;27.77;98713.34;4974943;28;19961;-88
2022/12/27 08:17:58;;;;;;;;;;;;;;;22.12;27.99;98707.38;4974862;28;19926;-87
2022/12/27 08:20:24;;;;;;;;;;;;;;;21.97;27.74;98718.63;4974877;28;19922;-88
2022/12/27 08:22:50;;;;;;;;;;;;;;;21.68;28.05;98739.41;4974963;28;19941;-88
2022/12/27 08:25:16;;;;;;;;;;;;;;;22.45;27.18;98741.19;4975014;28;19925;-88
2022/12/27 08:27:42;;;;;;;;;;;;;;;22.26;28.17;98747.28;4974996;28;19925;-88
2022/12/27 08:30:08;;;;;;;;;;;;;;;22.02;27.56;98746.16;4991159;28;19926;-88
2022/12/27 08:32:34;;;;;;;;;;;;;;;22.34;27.27;98746.03;4994184;28;20373;-88
2022/12/27 08:35:00;;;;;;;;;;;;;;;21.38;28.17;98752.22;4994198;28;19914;-88
2022/12/27 08:37:26;;;;;;;;;;;;;;;22.11;27.73;98734.53;4994142;28;19940;-88
2022/12/27 08:39:52;;;;;;;;;;;;;;;21.37;28.68;98747.84;4994318;28;19921;-88
2022/12/27 08:42:18;;;;;;;;;;;;;;;20.40;30.31;98760.00;4994279;28;19914;-88
2022/12/27 08:44:44;;;;;;;;;;;;;;;20.34;30.39;98760.78;4994402;28;19922;-88
2022/12/27 08:47:10;;;;;;;;;;;;;;;21.05;29.49;98768.16;4976748;28;19928;-88
2022/12/27 08:49:36;;;;;;;;;;;;;;;21.08;29.12;98761.78;4974417;28;20377;-88
2022/12/27 08:52:02;;;;;;;;;;;;;;;21.41;28.64;98766.19;4975149;28;19918;-88
2022/12/27 08:54:28;;;;;;;;;;;;;;;21.88;28.15;98764.97;4973357;28;19922;-88
2022/12/27 08:56:54;;;;;;;;;;;;;;;22.19;28.13;98766.88;4974844;28;19922;-88
2022/12/27 08:59:20;;;;;;;;;;;;;;;21.26;28.28;98789.75;4974448;28;19965;-88
2022/12/27 09:01:46;;;;;;;;;;;;;;;21.35;28.77;98793.72;4974426;28;19965;-88
2022/12/27 09:04:12;;;;;;;;;;;;;;;19.56;31.11;98796.50;4977305;28;19969;-88
2022/12/27 09:06:39;;;;;;;;;;;;;;;21.63;28.39;98789.34;4994040;28;19922;-88
2022/12/27 09:09:05;;;;;;;;;;;;;;;20.16;30.30;98794.13;4993607;28;19922;-88
2022/12/27 09:11:33;;;;;;;;;;;;;;;21.19;28.96;98804.47;4993826;28;19925;-87
2022/12/27 09:14:00;;;;;;;;;;;;;;;19.34;31.96;98803.09;4979830;28;19921;-87
2022/12/27 09:16:27;;;;;;;;;;;;;;;18.62;33.30;98806.31;4997663;28;19928;-87
2022/12/27 09:18:54;;;;;;;;;;;;;;;20.21;29.91;98804.88;4997394;28;20386;-87
2022/12/27 09:21:22;;;;;;;;;;;;;;;18.78;32.76;98802.53;4973506;28;20014;-88
2022/12/27 09:23:48;;;;;;;;;;;;;;;18.09;33.77;98820.69;4979833;28;19921;-87
2022/12/27 09:26:15;;;;;;;;;;;;;;;19.71;31.37;98812.16;4997475;28;19968;-88
2022/12/27 09:28:42;;;;;;;;;;;;;;;18.41;32.77;98800.47;4997149;28;19918;-88
2022/12/27 09:31:09;;;;;;;;;;;;;;;19.76;30.17;98813.78;4996880;28;19925;-88
2022/12/27 09:33:35;;;;;;;;;;;;;;;19.80;29.66;98806.25;4997213;28;19917;-88
2022/12/27 09:36:02;;;;;;;;;;;;;;;18.80;31.72;98819.63;4997434;28;19913;-88
2022/12/27 09:38:28;;;;;;;;;;;;;;;17.75;33.07;98817.84;4990983;28;19964;-88
2022/12/27 09:40:55;;;;;;;;;;;;;;;17.67;32.86;98801.41;4977654;28;19922;-88
2022/12/27 09:43:28;;;;;;;;;;;;;;;18.09;32.51;98810.38;4976140;28;19930;-88
2022/12/27 09:45:55;;;;;;;;;;;;;;;18.98;30.29;98803.91;4977886;28;19925;-88
2022/12/27 09:48:21;;;;;;;;;;;;;;;18.62;32.52;98799.97;4989096;28;20362;-89
2022/12/27 09:50:56;;;;;;;;;;;;;;;16.56;35.83;98799.84;4979959;28;19988;-88
2022/12/27 09:53:36;;;;;;;;;;;;;;;17.48;33.33;98807.84;4996740;28;20017;-88
2022/12/27 09:56:03;;;;;;;;;;;;;;;18.85;31.95;98808.97;4980168;28;19918;-88
2022/12/27 09:58:45;;;;;;;;;;;;;;;17.66;33.43;98789.53;4980720;28;19968;-88
2022/12/27 10:01:17;;;;;;;;;;;;;;;18.12;32.55;98803.25;4975355;28;19969;-90
2022/12/27 10:03:43;;;;;;;;;;;;;;;19.14;30.32;98804.47;4984680;28;20386;-89
2022/12/27 10:06:27;;;;;;;;;;;;;;;18.38;31.44;98812.38;4996954;28;19918;-87
2022/12/27 10:09:11;;;;;;;;;;;;;;;17.42;32.58;98803.78;4996189;28;19973;-87
2022/12/27 10:11:47;;;;;;;;;;;;;;;19.12;30.96;98823.53;4995484;28;19918;-89
2022/12/27 10:14:31;;;;;;;;;;;;;;;18.26;32.01;98822.91;4987610;28;19926;-89
2022/12/27 10:16:57;;;;;;;;;;;;;;;17.03;34.57;98814.22;4996253;28;19918;-87
2022/12/27 10:19:37;;;;;;;;;;;;;;;17.04;33.54;98831.66;4996596;28;20017;-88
2022/12/27 10:22:09;;;;;;;;;;;;;;;18.96;30.51;98829.34;4996266;28;19918;-88
2022/12/27 10:24:45;;;;;;;;;;;;;;;19.60;29.20;98832.78;4995509;28;20397;-87
2022/12/27 10:27:16;;;;;;;;;;;;;;;18.45;31.99;98828.31;4995976;28;20322;-87
2022/12/27 10:29:42;;;;;;;;;;;;;;;19.42;30.09;98829.03;4988809;28;19918;-87
2022/12/27 10:32:12;;;;;;;;;;;;;;;19.92;29.17;98826.25;4996111;28;19918;-88
2022/12/27 10:34:39;;;;;;;;;;;;;;;19.32;29.62;98820.16;4996161;28;19925;-88
2022/12/27 10:37:05;;;;;;;;;;;;;;;19.83;28.92;98806.28;4996138;28;20312;-87
2022/12/27 10:39:33;;;;;;;;;;;;;;;20.11;28.36;98821.56;4996321;28;19918;-88
2022/12/27 10:41:59;;;;;;;;;;;;;;;21.22;27.46;98826.03;4995756;28;19961;-88
2022/12/27 10:44:25;;;;;;;;;;;;;;;20.87;27.77;98822.31;4996380;28;20297;-88
2022/12/27 10:46:52;;;;;;;;;;;;;;;20.71;27.82;98817.09;4986607;28;19924;-88
2022/12/27 10:49:18;;;;;;;;;;;;;;;20.28;27.91;98806.97;4976459;28;19918;-88
2022/12/27 10:51:44;;;;;;;;;;;;;;;19.67;30.15;98807.75;4976122;28;19922;-87
2022/12/27 10:54:12;;;;;;;;;;;;;;;18.79;30.49;98801.31;4976468;28;19918;-88
2022/12/27 10:56:40;;;;;;;;;;;;;;;18.19;31.18;98806.13;4975750;28;19918;-88
2022/12/27 10:59:15;;;;;;;;;;;;;;;19.01;30.34;98808.72;4976318;28;19918;-88
2022/12/27 11:01:41;;;;;;;;;;;;;;;18.58;30.85;98799.09;4981468;28;20294;-88
2022/12/27 11:04:10;;;;;;;;;;;;;;;19.18;28.70;98791.41;4984115;28;20068;-87
2022/12/27 11:06:37;;;;;;;;;;;;;;;18.45;30.41;98801.38;4976171;28;19961;-88
2022/12/27 11:09:35;;;;;;;;;;;;;;;17.94;30.54;98811.38;4975563;28;20383;-88
2022/12/27 11:12:22;;;;;;;;;;;;;;;19.14;29.94;98807.25;4974480;28;19918;-88
2022/12/27 11:14:54;;;;;;;;;;;;;;;20.63;27.48;98805.09;4976399;28;19930;-87
2022/12/27 11:17:39;;;;;;;;;;;;;;;21.18;27.81;98811.28;4976051;28;19919;-87
2022/12/27 11:20:28;;;;;;;;;;;;;;;19.73;27.97;98800.63;4975874;28;19918;-88
2022/12/27 11:22:55;;;;;;;;;;;;;;;18.69;30.24;98808.41;4975160;28;19922;-88
2022/12/27 11:25:21;;;;;;;;;;;;;;;20.20;28.51;98799.72;4958223;28;19941;-88
2022/12/27 11:27:49;;;;;;;;;;;;;;;19.92;27.03;98806.75;4976179;28;19918;-87
2022/12/27 11:30:36;;;;;;;;;;;;;;;18.44;29.49;98810.84;4985237;28;19918;-88
2022/12/27 11:33:04;;;;;;;;;;;;;;;19.19;29.40;98812.47;4994955;28;19925;-88
2022/12/27 11:35:32;;;;;;;;;;;;;;;20.45;27.09;98809.84;4994520;28;19914;-87
2022/12/27 11:37:58;;;;;;;;;;;;;;;21.30;26.46;98815.66;4979680;28;19922;-88
2022/12/27 11:40:29;;;;;;;;;;;;;;;20.19;27.98;98815.63;4987538;28;19924;-88
2022/12/27 11:42:59;;;;;;;;;;;;;;;20.44;26.28;98808.22;4994997;28;19926;-87
2022/12/27 11:45:34;;;;;;;;;;;;;;;19.36;28.17;98806.31;4994745;28;19921;-88
2022/12/27 11:48:03;;;;;;;;;;;;;;;19.27;28.43;98808.59;4994904;28;19918;-88
2022/12/27 11:50:41;;;;;;;;;;;;;;;21.02;26.57;98804.44;4994564;28;19918;-87
2022/12/27 11:53:13;;;;;;;;;;;;;;;20.42;26.11;98807.03;4993669;28;19992;-88
2022/12/27 11:55:56;;;;;;;;;;;;;;;20.23;26.90;98807.34;4979414;28;19914;-88
2022/12/27 11:58:40;;;;;;;;;;;;;;;19.62;27.12;98808.91;4975457;28;19918;-87
2022/12/27 12:01:20;;;;;;;;;;;;;;;18.11;31.25;98807.25;4983473;28;20055;-88
2022/12/27 12:04:04;;;;;;;;;;;;;;;18.98;28.37;98812.25;4974366;28;19926;-88
2022/12/27 12:06:43;;;;;;;;;;;;;;;20.81;26.35;98807.97;4975446;28;19918;-88
2022/12/27 12:09:27;;;;;;;;;;;;;;;20.81;26.14;98807.16;4974675;28;20386;-88
2022/12/27 12:12:09;;;;;;;;;;;;;;;20.90;26.09;98802.81;4975506;28;19925;-87
2022/12/27 12:14:44;;;;;;;;;;;;;;;18.94;30.04;98808.66;4975112;28;20390;-88
2022/12/27 12:17:29;;;;;;;;;;;;;;;18.42;28.83;98798.50;4974836;28;19914;-88
2022/12/27 12:20:10;;;;;;;;;;;;;;;19.68;27.45;98806.56;4975255;28;20433;-88
2022/12/27 12:22:43;;;;;;;;;;;;;;;19.55;28.09;98811.66;4974726;28;20009;-88
2022/12/27 12:25:18;;;;;;;;;;;;;;;21.42;25.07;98797.72;4975122;28;20271;-88
2022/12/27 12:28:05;;;;;;;;;;;;;;;20.15;28.15;98800.88;4974600;28;19918;-89
2022/12/27 12:30:54;;;;;;;;;;;;;;;20.14;26.53;98804.06;4985876;28;20440;-88
2022/12/27 12:33:23;;;;;;;;;;;;;;;19.83;27.66;98794.34;4994493;28;19925;-88
2022/12/27 12:36:02;;;;;;;;;;;;;;;19.90;27.32;98799.94;4994320;28;19924;-88
2022/12/27 12:38:28;;;;;;;;;;;;;;;20.44;25.72;98818.59;4993929;28;20337;-89
2022/12/27 12:40:54;;;;;;;;;;;;;;;19.26;26.71;98807.78;4994335;28;19976;-88
2022/12/27 12:43:38;;;;;;;;;;;;;;;17.99;29.06;98822.16;4993902;28;19972;-88
2022/12/27 12:46:27;;;;;;;;;;;;;;;19.15;27.58;98817.22;4976905;28;19965;-88
2022/12/27 12:49:05;;;;;;;;;;;;;;;19.33;28.45;98812.59;4978788;28;20283;-89
2022/12/27 12:51:46;;;;;;;;;;;;;;;20.02;27.19;98816.34;4978221;28;19918;-88
2022/12/27 12:54:30;;;;;;;;;;;;;;;18.95;28.54;98807.47;4988732;28;20013;-89
2022/12/27 12:57:14;;;;;;;;;;;;;;;19.35;28.27;98801.09;4997687;28;19929;-89
2022/12/27 12:59:48;;;;;;;;;;;;;;;20.93;25.31;98815.19;4995753;28;19948;-88
2022/12/27 13:02:32;;;;;;;;;;;;;;;21.56;24.17;98814.50;4978847;28;19922;-88
2022/12/27 13:05:10;;;;;;;;;;;;;;;20.17;25.22;98803.28;4978374;28;19914;-87
2022/12/27 13:08:00;;;;;;;;;;;;;;;19.01;26.72;98815.09;4977917;28;20275;-88
2022/12/27 13:10:32;;;;;;;;;;;;;;;19.75;26.64;98812.97;4976991;28;20439;-88
2022/12/27 13:12:58;;;;;;;;;;;;;;;19.11;27.41;98816.41;4978124;28;19930;-88
2022/12/27 13:15:42;;;;;;;;;;;;;;;19.73;26.99;98808.97;4978530;28;19969;-88
2022/12/27 13:18:27;;;;;;;;;;;;;;;19.70;26.29;98804.19;4979275;28;19972;-88
2022/12/27 13:20:55;;;;;;;;;;;;;;;20.76;24.98;98818.72;4982081;28;19930;-87
2022/12/27 13:23:33;;;;;;;;;;;;;;;20.22;25.32;98826.06;4979288;28;20033;-88
2022/12/27 13:26:12;;;;;;;;;;;;;;;20.95;24.73;98819.19;4977900;28;19938;-88
2022/12/27 13:28:50;;;;;;;;;;;;;;;21.13;24.95;98822.81;4984201;28;19917;-89
2022/12/27 13:31:35;;;;;;;;;;;;;;;19.58;27.47;98807.28;4997254;28;19918;-89
2022/12/27 13:34:04;;;;;;;;;;;;;;;20.05;26.11;98821.13;4997286;28;19918;-89
2022/12/27 13:36:45;;;;;;;;;;;;;;;19.75;25.60;98818.56;4995783;28;19920;-88
2022/12/27 13:39:13;;;;;;;;;;;;;;;18.68;27.28;98817.91;4997209;28;19982;-89
2022/12/27 13:41:58;;;;;;;;;;;;;;;19.38;26.16;98817.84;4979878;28;19918;-88
2022/12/27 13:44:33;;;;;;;;;;;;;;;19.36;25.43;98820.22;4996687;28;19925;-89
2022/12/27 13:47:11;;;;;;;;;;;;;;;19.37;27.88;98829.38;4997171;28;19918;-88
2022/12/27 13:49:40;;;;;;;;;;;;;;;20.05;25.57;98837.09;4996773;28;19914;-88
2022/12/27 13:52:08;;;;;;;;;;;;;;;20.99;23.91;98838.72;4995741;28;19963;-89
2022/12/27 13:54:47;;;;;;;;;;;;;;;20.88;24.96;98843.47;4977818;28;19918;-88
2022/12/27 13:57:22;;;;;;;;;;;;;;;20.90;25.17;98838.28;4978494;28;19926;-88
2022/12/27 13:59:51;;;;;;;;;;;;;;;19.98;24.57;98848.97;4985423;28;19975;-89
2022/12/27 14:02:20;;;;;;;;;;;;;;;20.21;26.74;98843.94;4996795;28;19924;-88
2022/12/27 14:05:13;;;;;;;;;;;;;;;20.00;25.53;98850.19;4996603;28;19917;-89
2022/12/27 14:07:51;;;;;;;;;;;;;;;19.55;26.17;98856.22;4992519;28;20004;-88
2022/12/27 14:10:20;;;;;;;;;;;;;;;20.15;25.70;98858.63;4985730;28;20008;-89
2022/12/27 14:12:56;;;;;;;;;;;;;;;19.79;25.41;98852.03;4976877;28;19924;-89
2022/12/27 14:15:42;;;;;;;;;;;;;;;19.80;27.11;98860.00;4977360;28;19918;-89
2022/12/27 14:18:19;;;;;;;;;;;;;;;19.20;27.12;98865.00;4976128;28;19918;-89
2022/12/27 14:20:51;;;;;;;;;;;;;;;19.19;25.88;98866.16;4978867;28;19918;-89
2022/12/27 14:23:40;;;;;;;;;;;;;;;20.13;25.61;98861.81;4996255;28;19918;-89
2022/12/27 14:26:25;;;;;;;;;;;;;;;18.87;28.31;98873.38;4977344;28;20048;-89
2022/12/27 14:28:54;;;;;;;;;;;;;;;18.55;26.90;98866.63;4984887;28;19918;-88
2022/12/27 14:31:43;;;;;;;;;;;;;;;20.41;24.91;98875.97;4995763;28;19953;-89
2022/12/27 14:34:36;;;;;;;;;;;;;;;21.15;24.43;98876.28;4985332;28;19918;-89
2022/12/27 14:37:05;;;;;;;;;;;;;;;20.00;25.33;98880.03;4996186;28;19918;-87
2022/12/27 14:39:34;;;;;;;;;;;;;;;19.83;26.40;98877.94;4996062;28;19962;-88
2022/12/27 14:42:17;;;;;;;;;;;;;;;20.09;25.77;98888.88;4995927;28;19925;-89
2022/12/27 14:44:55;;;;;;;;;;;;;;;20.27;24.89;98887.03;4987190;28;19922;-89
2022/12/27 14:47:22;;;;;;;;;;;;;;;20.76;24.75;98894.88;4976186;28;20685;-89
2022/12/27 14:49:48;;;;;;;;;;;;;;;21.62;23.95;98893.91;4976915;28;19969;-89
2022/12/27 14:52:14;;;;;;;;;;;;;;;22.63;22.34;98893.09;4976425;28;19970;-88